Time,TemperatureF,DewpointF,PressureIn,WindDirection,WindDirectionDegrees,WindSpeedMPH,WindSpeedGustMPH,Humidity,HourlyPrecipIn,Conditions,Clouds,dailyrainin,SoftwareType,DateUTC
2013-01-05 00:02:00,23.2,4.5,-100.00,ESE,112,2.0,3.0,44,0.00,,,0.00,meteohub,2013-01-05 07:02:00,
2013-01-05 00:07:00,23.5,4.8,-100.00,SSE,157,1.0,3.0,44,0.00,,,0.00,meteohub,2013-01-05 07:07:00,
2013-01-05 00:12:00,23.4,4.6,-100.00,SSE,157,3.0,3.0,44,0.00,,,0.00,meteohub,2013-01-05 07:12:00,
2013-01-05 00:17:00,23.5,4.8,-100.00,SE,135,2.0,3.0,44,0.00,,,0.00,meteohub,2013-01-05 07:17:00,
2013-01-05 00:22:00,24.1,5.4,-100.00,ESE,112,2.0,4.0,44,0.00,,,0.00,meteohub,2013-01-05 07:22:00,
2013-01-05 00:27:00,24.1,5.4,-100.00,ESE,112,2.0,4.0,44,0.00,,,0.00,meteohub,2013-01-05 07:27:00,
2013-01-05 00:32:00,24.4,5.7,-100.00,SSE,157,2.0,4.0,44,0.00,,,0.00,meteohub,2013-01-05 07:32:00,
2013-01-05 00:37:00,23.7,4.5,-100.00,SE,135,2.0,4.0,43,0.00,,,0.00,meteohub,2013-01-05 07:37:00,
2013-01-05 00:42:00,23.7,4.5,-100.00,WNW,292,0.0,4.0,43,0.00,,,0.00,meteohub,2013-01-05 07:42:00,
2013-01-05 00:47:00,23.4,4.1,-100.00,SSW,202,1.0,3.0,43,0.00,,,0.00,meteohub,2013-01-05 07:47:00,
2013-01-05 00:53:00,22.5,3.9,-100.00,NNW,337,2.0,2.0,44,0.00,,,0.00,meteohub,2013-01-05 07:53:00,
2013-01-05 00:58:00,21.9,3.4,-100.00,ENE,67,1.0,2.0,44,0.00,,,0.00,meteohub,2013-01-05 07:58:00,
2013-01-05 01:03:00,21.9,3.4,-100.00,ESE,112,2.0,2.0,44,0.00,,,0.00,meteohub,2013-01-05 08:03:00,
2013-01-05 01:08:00,22.6,3.9,-100.00,WNW,292,2.0,2.0,44,0.00,,,0.00,meteohub,2013-01-05 08:08:00,
2013-01-05 01:13:00,22.3,3.7,-100.00,NNE,22,3.0,3.0,44,0.00,,,0.00,meteohub,2013-01-05 08:13:00,
2013-01-05 01:18:00,22.5,3.9,-100.00,North,-999,-999.0,2.0,44,0.00,,,0.00,meteohub,2013-01-05 08:18:00,
2013-01-05 01:23:00,22.3,3.7,-100.00,ENE,67,2.0,3.0,44,0.00,,,0.00,meteohub,2013-01-05 08:23:00,
2013-01-05 01:28:00,21.6,3.0,-100.00,ESE,112,0.0,3.0,44,0.00,,,0.00,meteohub,2013-01-05 08:28:00,
2013-01-05 01:33:00,20.8,2.3,-100.00,North,-999,-999.0,2.0,44,0.00,,,0.00,meteohub,2013-01-05 08:33:00,
2013-01-05 01:38:00,20.8,2.3,-100.00,North,-999,-999.0,2.0,44,0.00,,,0.00,meteohub,2013-01-05 08:38:00,
2013-01-05 01:43:00,21.0,3.0,-100.00,East,90,1.0,0.0,45,0.00,,,0.00,meteohub,2013-01-05 08:43:00,
2013-01-05 01:48:00,20.8,2.8,-100.00,ENE,67,1.0,1.0,45,0.00,,,0.00,meteohub,2013-01-05 08:48:00,
2013-01-05 01:53:00,20.3,2.3,-100.00,ENE,67,0.0,1.0,45,0.00,,,0.00,meteohub,2013-01-05 08:53:00,
2013-01-05 01:58:00,21.7,3.7,-100.00,ESE,112,3.0,3.0,45,0.00,,,0.00,meteohub,2013-01-05 08:58:00,
2013-01-05 02:03:00,22.1,3.9,-100.00,North,-999,-999.0,3.0,45,0.00,,,0.00,meteohub,2013-01-05 09:03:00,
2013-01-05 02:08:00,21.7,3.7,-100.00,East,90,2.0,3.0,45,0.00,,,0.00,meteohub,2013-01-05 09:08:00,
2013-01-05 02:13:00,21.4,3.4,-100.00,North,-999,-999.0,3.0,45,0.00,,,0.00,meteohub,2013-01-05 09:13:00,
2013-01-05 02:19:00,20.5,2.5,-100.00,SSE,157,0.0,2.0,45,0.00,,,0.00,meteohub,2013-01-05 09:19:00,
2013-01-05 02:24:00,20.7,2.7,-100.00,North,-999,-999.0,2.0,45,0.00,,,0.00,meteohub,2013-01-05 09:24:00,
2013-01-05 02:29:00,21.6,3.6,-100.00,North,-999,-999.0,0.0,45,0.00,,,0.00,meteohub,2013-01-05 09:29:00,
2013-01-05 02:34:00,21.6,3.6,-100.00,North,-999,-999.0,0.0,45,0.00,,,0.00,meteohub,2013-01-05 09:34:00,
2013-01-05 02:39:00,22.3,4.1,-100.00,North,-999,-999.0,-999.0,45,0.00,,,0.00,meteohub,2013-01-05 09:39:00,
2013-01-05 02:44:00,21.7,3.2,-100.00,North,-999,-999.0,-999.0,44,0.00,,,0.00,meteohub,2013-01-05 09:44:00,
2013-01-05 02:49:00,22.1,3.9,-100.00,ESE,112,3.0,-999.0,45,0.00,,,0.00,meteohub,2013-01-05 09:49:00,
2013-01-05 02:54:00,22.5,3.9,-100.00,North,-999,-999.0,3.0,44,0.00,,,0.00,meteohub,2013-01-05 09:54:00,
2013-01-05 02:59:00,22.6,3.9,-100.00,ESE,112,3.0,3.0,44,0.00,,,0.00,meteohub,2013-01-05 09:59:00,
2013-01-05 03:04:00,22.6,3.9,-100.00,North,-999,-999.0,3.0,44,0.00,,,0.00,meteohub,2013-01-05 10:04:00,
2013-01-05 03:09:00,23.0,4.3,-100.00,SSE,157,3.0,3.0,44,0.00,,,0.00,meteohub,2013-01-05 10:09:00,
2013-01-05 03:14:00,22.8,4.1,-100.00,North,-999,-999.0,3.0,44,0.00,,,0.00,meteohub,2013-01-05 10:14:00,
2013-01-05 03:19:00,22.8,4.1,-100.00,North,-999,-999.0,3.0,44,0.00,,,0.00,meteohub,2013-01-05 10:19:00,
2013-01-05 03:24:00,22.1,3.6,-100.00,North,-999,-999.0,3.0,44,0.00,,,0.00,meteohub,2013-01-05 10:24:00,
2013-01-05 03:30:00,21.9,3.4,-100.00,North,-999,-999.0,-999.0,44,0.00,,,0.00,meteohub,2013-01-05 10:30:00,
2013-01-05 03:35:00,21.9,3.7,-100.00,North,-999,-999.0,-999.0,45,0.00,,,0.00,meteohub,2013-01-05 10:35:00,
2013-01-05 03:40:00,21.6,3.6,-100.00,NE,45,2.0,2.0,45,0.00,,,0.00,meteohub,2013-01-05 10:40:00,
2013-01-05 03:45:00,22.3,4.1,-100.00,North,-999,-999.0,2.0,45,0.00,,,0.00,meteohub,2013-01-05 10:45:00,
2013-01-05 03:50:00,21.7,3.7,-100.00,ENE,67,3.0,3.0,45,0.00,,,0.00,meteohub,2013-01-05 10:50:00,
2013-01-05 03:55:00,21.9,3.7,-100.00,ENE,67,2.0,3.0,45,0.00,,,0.00,meteohub,2013-01-05 10:55:00,
2013-01-05 04:00:00,21.2,3.2,-100.00,North,-999,-999.0,3.0,45,0.00,,,0.00,meteohub,2013-01-05 11:00:00,
2013-01-05 04:05:00,20.8,2.8,-100.00,ESE,112,0.0,3.0,45,0.00,,,0.00,meteohub,2013-01-05 11:05:00,
2013-01-05 04:10:00,20.3,2.3,-100.00,North,-999,-999.0,0.0,45,0.00,,,0.00,meteohub,2013-01-05 11:10:00,
2013-01-05 04:15:00,20.3,2.3,-100.00,North,-999,-999.0,0.0,45,0.00,,,0.00,meteohub,2013-01-05 11:15:00,
2013-01-05 04:20:00,20.3,2.3,-100.00,North,-999,-999.0,-999.0,45,0.00,,,0.00,meteohub,2013-01-05 11:20:00,
2013-01-05 04:26:00,19.8,1.8,-100.00,North,-999,-999.0,-999.0,45,0.00,,,0.00,meteohub,2013-01-05 11:26:00,
2013-01-05 04:31:00,19.4,1.6,-100.00,North,-999,-999.0,-999.0,45,0.00,,,0.00,meteohub,2013-01-05 11:31:00,
2013-01-05 04:36:00,19.6,1.8,-100.00,ESE,112,2.0,-999.0,45,0.00,,,0.00,meteohub,2013-01-05 11:36:00,
2013-01-05 04:41:00,20.3,2.3,-100.00,East,90,2.0,2.0,45,0.00,,,0.00,meteohub,2013-01-05 11:41:00,
2013-01-05 04:46:00,21.6,3.6,-100.00,East,90,5.0,5.0,45,0.00,,,0.00,meteohub,2013-01-05 11:46:00,
2013-01-05 04:51:00,22.1,3.9,-100.00,SSE,157,3.0,5.0,45,0.00,,,0.00,meteohub,2013-01-05 11:51:00,
2013-01-05 04:56:00,23.2,4.5,-100.00,SSW,202,4.0,5.0,44,0.00,,,0.00,meteohub,2013-01-05 11:56:00,
2013-01-05 05:01:00,23.7,4.5,-100.00,SSW,202,2.0,6.0,43,0.00,,,0.00,meteohub,2013-01-05 12:01:00,
2013-01-05 05:06:00,23.0,4.3,-100.00,ESE,112,2.0,6.0,44,0.00,,,0.00,meteohub,2013-01-05 12:06:00,
2013-01-05 05:11:00,22.5,3.9,-100.00,East,90,2.0,5.0,44,0.00,,,0.00,meteohub,2013-01-05 12:11:00,
2013-01-05 05:16:00,22.3,3.7,-100.00,NW,315,1.0,2.0,44,0.00,,,0.00,meteohub,2013-01-05 12:16:00,
2013-01-05 05:21:00,21.7,3.2,-100.00,North,-999,-999.0,2.0,44,0.00,,,0.00,meteohub,2013-01-05 12:21:00,
2013-01-05 05:27:00,21.9,3.4,-100.00,East,90,1.0,2.0,44,0.00,,,0.00,meteohub,2013-01-05 12:27:00,
2013-01-05 05:32:00,23.9,4.6,-100.00,SSE,157,3.0,3.0,43,0.00,,,0.00,meteohub,2013-01-05 12:32:00,
2013-01-05 05:37:00,24.1,4.8,-100.00,SSE,157,2.0,4.0,43,0.00,,,0.00,meteohub,2013-01-05 12:37:00,
2013-01-05 05:42:00,24.4,5.2,-100.00,North,-999,-999.0,4.0,43,0.00,,,0.00,meteohub,2013-01-05 12:42:00,
2013-01-05 05:47:00,25.0,5.2,-100.00,North,-999,-999.0,3.0,42,0.00,,,0.00,meteohub,2013-01-05 12:47:00,
2013-01-05 05:52:00,23.9,4.6,-100.00,North,-999,-999.0,-999.0,43,0.00,,,0.00,meteohub,2013-01-05 12:52:00,
2013-01-05 05:57:00,22.8,3.7,-100.00,North,-999,-999.0,-999.0,43,0.00,,,0.00,meteohub,2013-01-05 12:57:00,
2013-01-05 06:02:00,23.0,3.9,-100.00,North,-999,-999.0,-999.0,43,0.00,,,0.00,meteohub,2013-01-05 13:02:00,
2013-01-05 06:07:00,22.8,3.7,-100.00,North,-999,-999.0,-999.0,43,0.00,,,0.00,meteohub,2013-01-05 13:07:00,
2013-01-05 06:12:00,21.7,2.7,-100.00,North,-999,-999.0,-999.0,43,0.00,,,0.00,meteohub,2013-01-05 13:12:00,
2013-01-05 06:17:00,22.3,3.2,-100.00,North,-999,-999.0,-999.0,43,0.00,,,0.00,meteohub,2013-01-05 13:17:00,
2013-01-05 06:22:00,22.3,3.2,-100.00,North,-999,-999.0,-999.0,43,0.00,,,0.00,meteohub,2013-01-05 13:22:00,
2013-01-05 06:27:00,22.6,3.6,-100.00,North,-999,-999.0,-999.0,43,0.00,,,0.00,meteohub,2013-01-05 13:27:00,
2013-01-05 06:32:00,22.1,3.0,-100.00,North,-999,-999.0,-999.0,43,0.00,,,0.00,meteohub,2013-01-05 13:32:00,
2013-01-05 06:37:00,22.5,3.4,-100.00,North,-999,-999.0,-999.0,43,0.00,,,0.00,meteohub,2013-01-05 13:37:00,
2013-01-05 06:42:00,21.6,2.5,-100.00,North,-999,-999.0,-999.0,43,0.00,,,0.00,meteohub,2013-01-05 13:42:00,
2013-01-05 06:47:00,20.8,1.9,-100.00,North,-999,-999.0,-999.0,43,0.00,,,0.00,meteohub,2013-01-05 13:47:00,
2013-01-05 06:52:00,20.3,1.4,-100.00,North,-999,-999.0,-999.0,43,0.00,,,0.00,meteohub,2013-01-05 13:52:00,
2013-01-05 06:57:00,20.8,1.9,-100.00,North,-999,-999.0,-999.0,43,0.00,,,0.00,meteohub,2013-01-05 13:57:00,
2013-01-05 07:02:00,21.6,2.5,-100.00,North,-999,-999.0,-999.0,43,0.00,,,0.00,meteohub,2013-01-05 14:02:00,
2013-01-05 07:07:00,22.5,3.4,-100.00,North,-999,-999.0,-999.0,43,0.00,,,0.00,meteohub,2013-01-05 14:07:00,
2013-01-05 07:12:00,22.6,3.6,-100.00,ESE,112,2.0,-999.0,43,0.00,,,0.00,meteohub,2013-01-05 14:12:00,
2013-01-05 07:17:00,23.0,3.9,-100.00,North,-999,-999.0,2.0,43,0.00,,,0.00,meteohub,2013-01-05 14:17:00,
2013-01-05 07:22:00,23.2,3.6,-100.00,North,-999,-999.0,2.0,42,0.00,,,0.00,meteohub,2013-01-05 14:22:00,
2013-01-05 07:27:00,23.4,3.6,-100.00,North,-999,-999.0,2.0,42,0.00,,,0.00,meteohub,2013-01-05 14:27:00,
2013-01-05 07:32:00,23.5,3.7,-100.00,North,-999,-999.0,-999.0,42,0.00,,,0.00,meteohub,2013-01-05 14:32:00,
2013-01-05 07:37:00,22.6,3.6,-100.00,SSE,157,0.0,-999.0,43,0.00,,,0.00,meteohub,2013-01-05 14:37:00,
2013-01-05 07:42:00,22.8,3.7,-100.00,North,-999,-999.0,0.0,43,0.00,,,0.00,meteohub,2013-01-05 14:42:00,
2013-01-05 07:47:00,23.2,3.6,-100.00,North,-999,-999.0,0.0,42,0.00,,,0.00,meteohub,2013-01-05 14:47:00,
2013-01-05 07:52:00,22.5,3.4,-100.00,North,-999,-999.0,-999.0,43,0.00,,,0.00,meteohub,2013-01-05 14:52:00,
2013-01-05 07:57:00,22.1,2.5,-100.00,North,-999,-999.0,-999.0,42,0.00,,,0.00,meteohub,2013-01-05 14:57:00,
2013-01-05 08:02:00,21.9,2.8,-100.00,North,-999,-999.0,-999.0,43,0.00,,,0.00,meteohub,2013-01-05 15:02:00,
2013-01-05 08:07:00,21.9,2.8,-100.00,North,-999,-999.0,-999.0,43,0.00,,,0.00,meteohub,2013-01-05 15:07:00,
2013-01-05 08:12:00,21.9,2.8,-100.00,North,-999,-999.0,-999.0,43,0.00,,,0.00,meteohub,2013-01-05 15:12:00,
2013-01-05 08:17:00,22.8,3.7,-100.00,North,-999,-999.0,-999.0,43,0.00,,,0.00,meteohub,2013-01-05 15:17:00,
2013-01-05 08:22:00,23.7,3.9,-100.00,East,90,2.0,-999.0,42,0.00,,,0.00,meteohub,2013-01-05 15:22:00,
2013-01-05 08:27:00,25.5,5.5,-100.00,ESE,112,2.0,2.0,42,0.00,,,0.00,meteohub,2013-01-05 15:27:00,
2013-01-05 08:32:00,27.0,7.0,-100.00,ESE,112,2.0,2.0,42,0.00,,,0.00,meteohub,2013-01-05 15:32:00,
2013-01-05 08:37:00,28.4,8.2,-100.00,SSE,157,2.0,3.0,42,0.00,,,0.00,meteohub,2013-01-05 15:37:00,
2013-01-05 08:42:00,29.7,9.3,-100.00,SSW,202,0.0,3.0,42,0.00,,,0.00,meteohub,2013-01-05 15:42:00,
2013-01-05 08:47:00,31.8,11.3,-100.00,WSW,247,0.0,3.0,42,0.00,,,0.00,meteohub,2013-01-05 15:47:00,
2013-01-05 08:52:00,34.0,12.7,-100.00,South,180,2.0,3.0,41,0.00,,,0.00,meteohub,2013-01-05 15:52:00,
2013-01-05 08:57:00,35.8,13.3,-100.00,SSE,157,4.0,4.0,39,0.00,,,0.00,meteohub,2013-01-05 15:57:00,
2013-01-05 09:02:00,36.1,11.8,-100.00,SSE,157,3.0,4.0,36,0.00,,,0.00,meteohub,2013-01-05 16:02:00,
2013-01-05 09:07:00,36.1,11.1,-100.00,SE,135,3.0,4.0,35,0.00,,,0.00,meteohub,2013-01-05 16:07:00,
2013-01-05 09:12:00,36.3,10.6,-100.00,SSE,157,4.0,6.0,34,0.00,,,0.00,meteohub,2013-01-05 16:12:00,
2013-01-05 09:17:00,36.9,10.4,-100.00,SSE,157,3.0,6.0,33,0.00,,,0.00,meteohub,2013-01-05 16:17:00,
2013-01-05 09:22:00,37.2,10.0,-100.00,SSE,157,4.0,6.0,32,0.00,,,0.00,meteohub,2013-01-05 16:22:00,
2013-01-05 09:27:00,37.6,10.4,-100.00,SSE,157,3.0,4.0,32,0.00,,,0.00,meteohub,2013-01-05 16:27:00,
2013-01-05 09:32:00,37.6,9.7,-100.00,South,180,2.0,4.0,31,0.00,,,0.00,meteohub,2013-01-05 16:32:00,
2013-01-05 09:37:00,37.9,10.8,-100.00,South,180,3.0,4.0,32,0.00,,,0.00,meteohub,2013-01-05 16:37:00,
2013-01-05 09:42:00,38.3,10.9,-100.00,SSW,202,4.0,6.0,32,0.00,,,0.00,meteohub,2013-01-05 16:42:00,
2013-01-05 09:47:00,39.0,11.7,-100.00,SSE,157,4.0,6.0,32,0.00,,,0.00,meteohub,2013-01-05 16:47:00,
2013-01-05 09:52:00,38.8,11.5,-100.00,SSE,157,6.0,6.0,32,0.00,,,0.00,meteohub,2013-01-05 16:52:00,
2013-01-05 09:57:00,39.2,11.8,-100.00,SSW,202,3.0,6.0,32,0.00,,,0.00,meteohub,2013-01-05 16:57:00,
2013-01-05 10:02:00,38.8,10.8,-100.00,South,180,7.0,9.0,31,0.00,,,0.00,meteohub,2013-01-05 17:02:00,
2013-01-05 10:07:00,39.2,10.4,-100.00,South,180,7.0,9.0,30,0.00,,,0.00,meteohub,2013-01-05 17:07:00,
2013-01-05 10:12:00,39.0,11.7,-100.00,SSW,202,7.0,9.0,32,0.00,,,0.00,meteohub,2013-01-05 17:12:00,
2013-01-05 10:17:00,39.2,11.1,-100.00,SSE,157,11.0,11.0,31,0.00,,,0.00,meteohub,2013-01-05 17:17:00,
2013-01-05 10:22:00,39.2,11.1,-100.00,South,180,6.0,11.0,31,0.00,,,0.00,meteohub,2013-01-05 17:22:00,
2013-01-05 10:27:00,38.8,10.8,-100.00,SSE,157,11.0,11.0,31,0.00,,,0.00,meteohub,2013-01-05 17:27:00,
2013-01-05 10:32:00,39.6,12.2,-100.00,SSE,157,10.0,13.0,32,0.00,,,0.00,meteohub,2013-01-05 17:32:00,
2013-01-05 10:37:00,39.9,11.7,-100.00,SSW,202,6.0,13.0,31,0.00,,,0.00,meteohub,2013-01-05 17:37:00,
2013-01-05 10:42:00,39.7,11.5,-100.00,SSW,202,7.0,13.0,31,0.00,,,0.00,meteohub,2013-01-05 17:42:00,
2013-01-05 10:47:00,39.7,12.2,-100.00,SSW,202,6.0,13.0,32,0.00,,,0.00,meteohub,2013-01-05 17:47:00,
2013-01-05 10:53:00,39.6,12.2,-100.00,SSE,157,12.0,13.0,32,0.00,,,0.00,meteohub,2013-01-05 17:53:00,
2013-01-05 10:58:00,39.9,13.1,-100.00,SSW,202,5.0,13.0,33,0.00,,,0.00,meteohub,2013-01-05 17:58:00,
2013-01-05 11:03:00,39.0,12.4,-100.00,SSW,202,11.0,13.0,33,0.00,,,0.00,meteohub,2013-01-05 18:03:00,
2013-01-05 11:08:00,39.7,12.9,-100.00,SSW,202,6.0,15.0,33,0.00,,,0.00,meteohub,2013-01-05 18:08:00,
2013-01-05 11:13:00,39.6,12.7,-100.00,South,180,13.0,15.0,33,0.00,,,0.00,meteohub,2013-01-05 18:13:00,
2013-01-05 11:18:00,39.0,13.6,-100.00,SSE,157,13.0,15.0,35,0.00,,,0.00,meteohub,2013-01-05 18:18:00,
2013-01-05 11:23:00,39.0,13.1,-100.00,SSE,157,13.0,15.0,34,0.00,,,0.00,meteohub,2013-01-05 18:23:00,
2013-01-05 11:28:00,39.2,13.1,-100.00,SSE,157,14.0,15.0,34,0.00,,,0.00,meteohub,2013-01-05 18:28:00,
2013-01-05 11:33:00,39.7,13.6,-100.00,SE,135,9.0,15.0,34,0.00,,,0.00,meteohub,2013-01-05 18:33:00,
2013-01-05 11:38:00,39.6,13.5,-100.00,SSW,202,9.0,15.0,34,0.00,,,0.00,meteohub,2013-01-05 18:38:00,
2013-01-05 11:43:00,39.9,13.8,-100.00,SSE,157,11.0,16.0,34,0.00,,,0.00,meteohub,2013-01-05 18:43:00,
2013-01-05 11:48:00,39.9,13.8,-100.00,SSW,202,6.0,16.0,34,0.00,,,0.00,meteohub,2013-01-05 18:48:00,
2013-01-05 11:53:00,40.6,15.1,-100.00,South,180,8.0,17.0,35,0.00,,,0.00,meteohub,2013-01-05 18:53:00,
2013-01-05 11:58:00,40.5,14.9,-100.00,SSE,157,11.0,17.0,35,0.00,,,0.00,meteohub,2013-01-05 18:58:00,
2013-01-05 12:04:00,40.8,15.3,-100.00,SSW,202,10.0,17.0,35,0.00,,,0.00,meteohub,2013-01-05 19:04:00,
2013-01-05 12:09:00,41.0,14.0,-100.00,SSE,157,14.0,15.0,33,0.00,,,0.00,meteohub,2013-01-05 19:09:00,
2013-01-05 12:14:00,41.7,14.7,-100.00,SSE,157,7.0,16.0,33,0.00,,,0.00,meteohub,2013-01-05 19:14:00,
2013-01-05 12:19:00,42.3,15.8,-100.00,South,180,6.0,16.0,34,0.00,,,0.00,meteohub,2013-01-05 19:19:00,
2013-01-05 12:24:00,42.3,15.3,-100.00,SSE,157,6.0,15.0,33,0.00,,,0.00,meteohub,2013-01-05 19:24:00,
2013-01-05 12:29:00,42.8,14.2,-100.00,SSE,157,6.0,13.0,31,0.00,,,0.00,meteohub,2013-01-05 19:29:00,
2013-01-05 12:34:00,42.8,14.9,-100.00,SSE,157,7.0,11.0,32,0.00,,,0.00,meteohub,2013-01-05 19:34:00,
2013-01-05 12:39:00,43.2,16.0,-100.00,ESE,112,6.0,11.0,33,0.00,,,0.00,meteohub,2013-01-05 19:39:00,
2013-01-05 12:44:00,43.7,15.8,-100.00,SSW,202,3.0,11.0,32,0.00,,,0.00,meteohub,2013-01-05 19:44:00,
2013-01-05 12:49:00,44.1,15.3,-100.00,NNE,22,3.0,11.0,31,0.00,,,0.00,meteohub,2013-01-05 19:49:00,
2013-01-05 12:54:00,43.9,15.3,-100.00,ESE,112,4.0,11.0,31,0.00,,,0.00,meteohub,2013-01-05 19:54:00,
2013-01-05 12:59:00,45.1,16.3,-100.00,East,90,3.0,8.0,31,0.00,,,0.00,meteohub,2013-01-05 19:59:00,
2013-01-05 13:04:00,44.4,15.6,-100.00,SSE,157,2.0,8.0,31,0.00,,,0.00,meteohub,2013-01-05 20:04:00,
2013-01-05 13:09:00,44.8,16.0,-100.00,SSE,157,6.0,10.0,31,0.00,,,0.00,meteohub,2013-01-05 20:09:00,
2013-01-05 13:15:00,43.5,15.6,-100.00,ESE,112,3.0,10.0,32,0.00,,,0.00,meteohub,2013-01-05 20:15:00,
2013-01-05 13:20:00,44.6,15.8,-100.00,SSE,157,6.0,8.0,31,0.00,,,0.00,meteohub,2013-01-05 20:20:00,
2013-01-05 13:25:00,43.5,16.3,-100.00,SSE,157,6.0,8.0,33,0.00,,,0.00,meteohub,2013-01-05 20:25:00,
2013-01-05 13:30:00,43.9,16.0,-100.00,SSE,157,6.0,10.0,32,0.00,,,0.00,meteohub,2013-01-05 20:30:00,
2013-01-05 13:35:00,42.8,15.6,-100.00,South,180,5.0,10.0,33,0.00,,,0.00,meteohub,2013-01-05 20:35:00,
2013-01-05 13:40:00,43.2,15.3,-100.00,SE,135,6.0,11.0,32,0.00,,,0.00,meteohub,2013-01-05 20:40:00,
2013-01-05 13:45:00,42.6,15.4,-100.00,SSW,202,5.0,11.0,33,0.00,,,0.00,meteohub,2013-01-05 20:45:00,
2013-01-05 13:50:00,43.5,16.3,-100.00,SSW,202,6.0,8.0,33,0.00,,,0.00,meteohub,2013-01-05 20:50:00,
2013-01-05 13:55:00,43.5,16.3,-100.00,SSW,202,4.0,9.0,33,0.00,,,0.00,meteohub,2013-01-05 20:55:00,
2013-01-05 14:00:00,44.6,15.8,-100.00,SE,135,4.0,9.0,31,0.00,,,0.00,meteohub,2013-01-05 21:00:00,
2013-01-05 14:05:00,44.4,15.6,-100.00,South,180,4.0,7.0,31,0.00,,,0.00,meteohub,2013-01-05 21:05:00,
2013-01-05 14:10:00,44.1,15.3,-100.00,SSE,157,4.0,8.0,31,0.00,,,0.00,meteohub,2013-01-05 21:10:00,
2013-01-05 14:16:00,43.9,16.7,-100.00,SSE,157,6.0,9.0,33,0.00,,,0.00,meteohub,2013-01-05 21:16:00,
2013-01-05 14:21:00,43.3,15.4,-100.00,SSW,202,4.0,9.0,32,0.00,,,0.00,meteohub,2013-01-05 21:21:00,
2013-01-05 14:26:00,43.3,14.7,-100.00,SSE,157,9.0,9.0,31,0.00,,,0.00,meteohub,2013-01-05 21:26:00,
2013-01-05 14:31:00,43.2,15.3,-100.00,SSE,157,7.0,11.0,32,0.00,,,0.00,meteohub,2013-01-05 21:31:00,
2013-01-05 14:36:00,42.3,15.3,-100.00,SSE,157,9.0,12.0,33,0.00,,,0.00,meteohub,2013-01-05 21:36:00,
2013-01-05 14:41:00,42.4,15.4,-100.00,South,180,10.0,12.0,33,0.00,,,0.00,meteohub,2013-01-05 21:41:00,
2013-01-05 14:46:00,42.1,15.8,-100.00,SSE,157,6.0,12.0,34,0.00,,,0.00,meteohub,2013-01-05 21:46:00,
2013-01-05 14:51:00,41.7,14.7,-100.00,SSW,202,6.0,11.0,33,0.00,,,0.00,meteohub,2013-01-05 21:51:00,
2013-01-05 14:56:00,41.2,14.2,-100.00,SSE,157,10.0,11.0,33,0.00,,,0.00,meteohub,2013-01-05 21:56:00,
2013-01-05 15:01:00,41.0,14.0,-100.00,SSE,157,8.0,12.0,33,0.00,,,0.00,meteohub,2013-01-05 22:01:00,
2013-01-05 15:06:00,40.8,14.0,-100.00,SSW,202,11.0,12.0,33,0.00,,,0.00,meteohub,2013-01-05 22:06:00,
2013-01-05 15:11:00,40.5,13.6,-100.00,SSE,157,12.0,12.0,33,0.00,,,0.00,meteohub,2013-01-05 22:11:00,
2013-01-05 15:16:00,40.1,13.3,-100.00,SSE,157,10.0,12.0,33,0.00,,,0.00,meteohub,2013-01-05 22:16:00,
2013-01-05 15:21:00,40.3,13.5,-100.00,SSE,157,7.0,13.0,33,0.00,,,0.00,meteohub,2013-01-05 22:21:00,
2013-01-05 15:26:00,40.1,14.0,-100.00,SSE,157,8.0,13.0,34,0.00,,,0.00,meteohub,2013-01-05 22:26:00,
2013-01-05 15:31:00,40.3,13.5,-100.00,SSW,202,9.0,13.0,33,0.00,,,0.00,meteohub,2013-01-05 22:31:00,
2013-01-05 15:37:00,40.1,13.3,-100.00,SSW,202,6.0,12.0,33,0.00,,,0.00,meteohub,2013-01-05 22:37:00,
2013-01-05 15:42:00,40.3,13.5,-100.00,SSW,202,4.0,12.0,33,0.00,,,0.00,meteohub,2013-01-05 22:42:00,
2013-01-05 15:47:00,39.6,12.7,-100.00,South,180,4.0,12.0,33,0.00,,,0.00,meteohub,2013-01-05 22:47:00,
2013-01-05 15:52:00,40.1,13.3,-100.00,South,180,3.0,9.0,33,0.00,,,0.00,meteohub,2013-01-05 22:52:00,
2013-01-05 15:57:00,39.9,13.8,-100.00,SSW,202,2.0,9.0,34,0.00,,,0.00,meteohub,2013-01-05 22:57:00,
2013-01-05 16:02:00,39.6,12.7,-100.00,SSW,202,5.0,9.0,33,0.00,,,0.00,meteohub,2013-01-05 23:02:00,
2013-01-05 16:07:00,37.2,11.5,-100.00,SSW,202,4.0,6.0,34,0.00,,,0.00,meteohub,2013-01-05 23:07:00,
2013-01-05 16:12:00,36.0,10.2,-100.00,North,-999,-999.0,6.0,34,0.00,,,0.00,meteohub,2013-01-05 23:12:00,
2013-01-05 16:17:00,33.8,9.7,-100.00,North,-999,-999.0,5.0,36,0.00,,,0.00,meteohub,2013-01-05 23:17:00,
2013-01-05 16:22:00,32.9,8.8,-100.00,North,-999,-999.0,-999.0,36,0.00,,,0.00,meteohub,2013-01-05 23:22:00,
2013-01-05 16:27:00,32.0,8.1,-100.00,North,-999,-999.0,-999.0,36,0.00,,,0.00,meteohub,2013-01-05 23:27:00,
2013-01-05 16:32:00,31.1,7.3,-100.00,North,-999,-999.0,-999.0,36,0.00,,,0.00,meteohub,2013-01-05 23:32:00,
2013-01-05 16:37:00,30.4,6.6,-100.00,North,-999,-999.0,-999.0,36,0.00,,,0.00,meteohub,2013-01-05 23:37:00,
2013-01-05 16:42:00,30.0,7.5,-100.00,North,-999,-999.0,-999.0,38,0.00,,,0.00,meteohub,2013-01-05 23:42:00,
2013-01-05 16:47:00,29.5,7.0,-100.00,North,-999,-999.0,-999.0,38,0.00,,,0.00,meteohub,2013-01-05 23:47:00,
2013-01-05 16:52:00,29.1,7.9,-100.00,North,-999,-999.0,-999.0,40,0.00,,,0.00,meteohub,2013-01-05 23:52:00,
2013-01-05 16:57:00,28.6,6.8,-100.00,North,-999,-999.0,-999.0,39,0.00,,,0.00,meteohub,2013-01-05 23:57:00,
2013-01-05 17:02:00,27.9,6.6,-100.00,North,-999,-999.0,-999.0,40,0.00,,,0.00,meteohub,2013-01-06 00:02:00,
2013-01-05 17:07:00,27.3,6.3,-100.00,North,-999,-999.0,-999.0,40,0.00,,,0.00,meteohub,2013-01-06 00:07:00,
2013-01-05 17:12:00,27.0,5.9,-100.00,North,-999,-999.0,-999.0,40,0.00,,,0.00,meteohub,2013-01-06 00:12:00,
2013-01-05 17:17:00,26.8,6.3,-100.00,North,-999,-999.0,-999.0,41,0.00,,,0.00,meteohub,2013-01-06 00:17:00,
2013-01-05 17:22:00,27.1,6.6,-100.00,North,-999,-999.0,-999.0,41,0.00,,,0.00,meteohub,2013-01-06 00:22:00,
2013-01-05 17:27:00,26.8,6.3,-100.00,SSE,157,0.0,-999.0,41,0.00,,,0.00,meteohub,2013-01-06 00:27:00,
2013-01-05 17:32:00,27.1,7.2,-100.00,North,-999,-999.0,1.0,42,0.00,,,0.00,meteohub,2013-01-06 00:32:00,
2013-01-05 17:37:00,27.9,7.7,-100.00,ESE,112,1.0,1.0,42,0.00,,,0.00,meteohub,2013-01-06 00:37:00,
2013-01-05 17:42:00,27.9,8.2,-100.00,North,-999,-999.0,1.0,43,0.00,,,0.00,meteohub,2013-01-06 00:42:00,
2013-01-05 17:47:00,27.9,8.2,-100.00,SSE,157,3.0,3.0,43,0.00,,,0.00,meteohub,2013-01-06 00:47:00,
2013-01-05 17:52:00,27.3,7.2,-100.00,North,-999,-999.0,3.0,42,0.00,,,0.00,meteohub,2013-01-06 00:52:00,
2013-01-05 17:57:00,26.6,7.2,-100.00,North,-999,-999.0,3.0,43,0.00,,,0.00,meteohub,2013-01-06 00:57:00,
2013-01-05 18:02:00,26.1,6.6,-100.00,North,-999,-999.0,-999.0,43,0.00,,,0.00,meteohub,2013-01-06 01:02:00,
2013-01-05 18:07:00,26.1,6.6,-100.00,North,-999,-999.0,-999.0,43,0.00,,,0.00,meteohub,2013-01-06 01:07:00,
2013-01-05 18:12:00,26.1,6.6,-100.00,North,-999,-999.0,-999.0,43,0.00,,,0.00,meteohub,2013-01-06 01:12:00,
2013-01-05 18:17:00,26.8,7.3,-100.00,North,-999,-999.0,-999.0,43,0.00,,,0.00,meteohub,2013-01-06 01:17:00,
2013-01-05 18:23:00,26.4,7.0,-100.00,North,-999,-999.0,-999.0,43,0.00,,,0.00,meteohub,2013-01-06 01:23:00,
2013-01-05 18:28:00,26.2,6.8,-100.00,North,-999,-999.0,-999.0,43,0.00,,,0.00,meteohub,2013-01-06 01:28:00,
2013-01-05 18:33:00,26.6,7.2,-100.00,North,-999,-999.0,-999.0,43,0.00,,,0.00,meteohub,2013-01-06 01:33:00,
2013-01-05 18:38:00,26.2,6.8,-100.00,North,-999,-999.0,-999.0,43,0.00,,,0.00,meteohub,2013-01-06 01:38:00,
2013-01-05 18:43:00,25.5,6.1,-100.00,North,-999,-999.0,-999.0,43,0.00,,,0.00,meteohub,2013-01-06 01:43:00,
2013-01-05 18:48:00,25.3,6.4,-100.00,ESE,112,2.0,-999.0,44,0.00,,,0.00,meteohub,2013-01-06 01:48:00,
2013-01-05 18:53:00,25.3,5.9,-100.00,SSE,157,2.0,2.0,43,0.00,,,0.00,meteohub,2013-01-06 01:53:00,
2013-01-05 18:58:00,25.3,5.9,-100.00,North,-999,-999.0,2.0,43,0.00,,,0.00,meteohub,2013-01-06 01:58:00,
2013-01-05 19:03:00,25.3,6.4,-100.00,North,-999,-999.0,2.0,44,0.00,,,0.00,meteohub,2013-01-06 02:03:00,
2013-01-05 19:08:00,24.8,5.9,-100.00,North,-999,-999.0,2.0,44,0.00,,,0.00,meteohub,2013-01-06 02:08:00,
2013-01-05 19:13:00,24.3,5.5,-100.00,North,-999,-999.0,-999.0,44,0.00,,,0.00,meteohub,2013-01-06 02:13:00,
2013-01-05 19:18:00,24.1,5.7,-100.00,North,-999,-999.0,-999.0,45,0.00,,,0.00,meteohub,2013-01-06 02:18:00,
2013-01-05 19:23:00,24.3,5.5,-100.00,North,-999,-999.0,-999.0,44,0.00,,,0.00,meteohub,2013-01-06 02:23:00,
2013-01-05 19:28:00,23.5,5.4,-100.00,North,-999,-999.0,-999.0,45,0.00,,,0.00,meteohub,2013-01-06 02:28:00,
2013-01-05 19:33:00,23.4,5.2,-100.00,North,-999,-999.0,-999.0,45,0.00,,,0.00,meteohub,2013-01-06 02:33:00,
2013-01-05 19:39:00,22.5,4.3,-100.00,North,-999,-999.0,-999.0,45,0.00,,,0.00,meteohub,2013-01-06 02:39:00,
2013-01-05 19:44:00,22.5,4.8,-100.00,North,-999,-999.0,-999.0,46,0.00,,,0.00,meteohub,2013-01-06 02:44:00,
2013-01-05 19:49:00,23.7,5.9,-100.00,North,-999,-999.0,-999.0,46,0.00,,,0.00,meteohub,2013-01-06 02:49:00,
2013-01-05 19:54:00,23.7,5.9,-100.00,North,-999,-999.0,-999.0,46,0.00,,,0.00,meteohub,2013-01-06 02:54:00,
2013-01-05 19:59:00,23.7,5.9,-100.00,North,-999,-999.0,-999.0,46,0.00,,,0.00,meteohub,2013-01-06 02:59:00,
2013-01-05 20:04:00,23.5,5.7,-100.00,North,-999,-999.0,-999.0,46,0.00,,,0.00,meteohub,2013-01-06 03:04:00,
2013-01-05 20:09:00,23.5,5.7,-100.00,North,-999,-999.0,-999.0,46,0.00,,,0.00,meteohub,2013-01-06 03:09:00,
2013-01-05 20:14:00,23.7,5.9,-100.00,North,-999,-999.0,-999.0,46,0.00,,,0.00,meteohub,2013-01-06 03:14:00,
2013-01-05 20:19:00,22.6,5.0,-100.00,North,-999,-999.0,-999.0,46,0.00,,,0.00,meteohub,2013-01-06 03:19:00,
2013-01-05 20:24:00,23.0,5.7,-100.00,North,-999,-999.0,-999.0,47,0.00,,,0.00,meteohub,2013-01-06 03:24:00,
2013-01-05 20:29:00,22.6,5.4,-100.00,North,-999,-999.0,-999.0,47,0.00,,,0.00,meteohub,2013-01-06 03:29:00,
2013-01-05 20:35:00,22.5,5.4,-100.00,North,-999,-999.0,-999.0,47,0.00,,,0.00,meteohub,2013-01-06 03:35:00,
2013-01-05 20:40:00,23.9,6.1,-100.00,North,-999,-999.0,-999.0,46,0.00,,,0.00,meteohub,2013-01-06 03:40:00,
2013-01-05 20:45:00,24.1,6.3,-100.00,North,-999,-999.0,-999.0,46,0.00,,,0.00,meteohub,2013-01-06 03:45:00,
2013-01-05 20:50:00,22.8,5.2,-100.00,North,-999,-999.0,-999.0,46,0.00,,,0.00,meteohub,2013-01-06 03:50:00,
2013-01-05 20:55:00,23.9,6.6,-100.00,North,-999,-999.0,-999.0,47,0.00,,,0.00,meteohub,2013-01-06 03:55:00,
2013-01-05 21:00:00,24.1,6.8,-100.00,North,-999,-999.0,-999.0,47,0.00,,,0.00,meteohub,2013-01-06 04:00:00,
2013-01-05 21:05:00,23.5,5.7,-100.00,North,-999,-999.0,-999.0,46,0.00,,,0.00,meteohub,2013-01-06 04:05:00,
2013-01-05 21:10:00,23.4,5.5,-100.00,North,-999,-999.0,-999.0,46,0.00,,,0.00,meteohub,2013-01-06 04:10:00,
2013-01-05 21:15:00,23.9,6.6,-100.00,SSE,157,3.0,3.0,47,0.00,,,0.00,meteohub,2013-01-06 04:15:00,
2013-01-05 21:20:00,23.4,5.5,-100.00,ESE,112,3.0,4.0,46,0.00,,,0.00,meteohub,2013-01-06 04:20:00,
2013-01-05 21:25:00,23.7,5.9,-100.00,ESE,112,3.0,4.0,46,0.00,,,0.00,meteohub,2013-01-06 04:25:00,
2013-01-05 21:30:00,23.4,5.5,-100.00,North,-999,-999.0,4.0,46,0.00,,,0.00,meteohub,2013-01-06 04:30:00,
2013-01-05 21:35:00,22.5,4.8,-100.00,NNW,337,2.0,4.0,46,0.00,,,0.00,meteohub,2013-01-06 04:35:00,
2013-01-05 21:41:00,21.9,4.3,-100.00,North,-999,-999.0,2.0,46,0.00,,,0.00,meteohub,2013-01-06 04:41:00,
2013-01-05 21:46:00,21.9,4.3,-100.00,North,-999,-999.0,2.0,46,0.00,,,0.00,meteohub,2013-01-06 04:46:00,
2013-01-05 21:51:00,21.2,4.1,-100.00,North,-999,-999.0,2.0,47,0.00,,,0.00,meteohub,2013-01-06 04:51:00,
2013-01-05 21:56:00,21.7,4.6,-100.00,North,-999,-999.0,-999.0,47,0.00,,,0.00,meteohub,2013-01-06 04:56:00,
2013-01-05 22:00:00,21.4,3.7,-100.00,North,-999,-999.0,-999.0,46,0.00,,,0.00,meteohub,2013-01-06 05:00:00,
2013-01-05 22:01:00,21.2,4.1,-100.00,North,-999,-999.0,-999.0,47,0.00,,,0.00,meteohub,2013-01-06 05:01:00,
2013-01-05 22:02:00,21.0,3.9,-100.00,North,-999,-999.0,-999.0,47,0.00,,,0.00,meteohub,2013-01-06 05:02:00,
2013-01-05 22:05:00,20.7,3.2,-100.00,North,-999,-999.0,-999.0,46,0.00,,,0.00,meteohub,2013-01-06 05:05:00,
2013-01-05 22:10:00,20.3,2.8,-100.00,North,-999,-999.0,-999.0,46,0.00,,,0.00,meteohub,2013-01-06 05:10:00,
2013-01-05 22:15:00,20.1,2.7,-100.00,North,-999,-999.0,-999.0,46,0.00,,,0.00,meteohub,2013-01-06 05:15:00,
2013-01-05 22:20:00,20.3,3.2,-100.00,North,-999,-999.0,-999.0,47,0.00,,,0.00,meteohub,2013-01-06 05:20:00,
2013-01-05 22:26:00,19.8,2.8,-100.00,North,-999,-999.0,-999.0,47,0.00,,,0.00,meteohub,2013-01-06 05:26:00,
2013-01-05 22:31:00,19.8,2.8,-100.00,North,-999,-999.0,-999.0,47,0.00,,,0.00,meteohub,2013-01-06 05:31:00,
2013-01-05 22:36:00,19.9,3.4,-100.00,North,-999,-999.0,-999.0,48,0.00,,,0.00,meteohub,2013-01-06 05:36:00,
2013-01-05 22:41:00,19.8,3.2,-100.00,North,-999,-999.0,-999.0,48,0.00,,,0.00,meteohub,2013-01-06 05:41:00,
2013-01-05 22:46:00,20.3,3.7,-100.00,North,-999,-999.0,-999.0,48,0.00,,,0.00,meteohub,2013-01-06 05:46:00,
2013-01-05 22:51:00,20.3,4.1,-100.00,North,-999,-999.0,-999.0,49,0.00,,,0.00,meteohub,2013-01-06 05:51:00,
2013-01-05 22:56:00,20.7,5.0,-100.00,North,-999,-999.0,-999.0,50,0.00,,,0.00,meteohub,2013-01-06 05:56:00,
2013-01-05 23:01:00,20.1,4.1,-100.00,North,-999,-999.0,-999.0,49,0.00,,,0.00,meteohub,2013-01-06 06:01:00,
2013-01-05 23:06:00,20.1,4.1,-100.00,North,-999,-999.0,-999.0,49,0.00,,,0.00,meteohub,2013-01-06 06:06:00,
2013-01-05 23:11:00,20.1,4.1,-100.00,North,-999,-999.0,-999.0,49,0.00,,,0.00,meteohub,2013-01-06 06:11:00,
2013-01-05 23:16:00,20.3,4.1,-100.00,North,-999,-999.0,-999.0,49,0.00,,,0.00,meteohub,2013-01-06 06:16:00,
2013-01-05 23:21:00,20.3,4.1,-100.00,North,-999,-999.0,-999.0,49,0.00,,,0.00,meteohub,2013-01-06 06:21:00,
2013-01-05 23:26:00,20.3,4.1,-100.00,ESE,112,0.0,-999.0,49,0.00,,,0.00,meteohub,2013-01-06 06:26:00,
2013-01-05 23:31:00,20.1,3.6,-100.00,ENE,67,2.0,0.0,48,0.00,,,0.00,meteohub,2013-01-06 06:31:00,
2013-01-05 23:37:00,20.5,4.3,-100.00,NNE,22,0.0,2.0,49,0.00,,,0.00,meteohub,2013-01-06 06:37:00,
2013-01-05 23:42:00,20.3,3.7,-100.00,SSW,202,0.0,2.0,48,0.00,,,0.00,meteohub,2013-01-06 06:42:00,
2013-01-05 23:47:00,19.4,2.8,-100.00,ENE,67,0.0,1.0,48,0.00,,,0.00,meteohub,2013-01-06 06:47:00,
2013-01-05 23:52:00,19.2,2.7,-100.00,ENE,67,0.0,1.0,48,0.00,,,0.00,meteohub,2013-01-06 06:52:00,
2013-01-05 23:57:00,19.2,3.2,-100.00,ENE,67,0.0,0.0,49,0.00,,,0.00,meteohub,2013-01-06 06:57:00,